sensor_id;sensor_type;location;lat;lon;timestamp;temperature;humidity
9223;DHT22;7557;51.698;3.942;2023-02-25T00:01:08;6.40;99.90
9223;DHT22;7557;51.698;3.942;2023-02-25T00:03:35;6.30;99.90
9223;DHT22;7557;51.698;3.942;2023-02-25T00:06:03;6.30;99.90
9223;DHT22;7557;51.698;3.942;2023-02-25T00:08:30;6.30;99.90
9223;DHT22;7557;51.698;3.942;2023-02-25T00:10:58;6.20;99.90
9223;DHT22;7557;51.698;3.942;2023-02-25T00:13:26;6.20;99.90
9223;DHT22;7557;51.698;3.942;2023-02-25T00:15:53;6.20;99.90
9223;DHT22;7557;51.698;3.942;2023-02-25T00:18:24;6.10;99.90
9223;DHT22;7557;51.698;3.942;2023-02-25T00:20:51;6.20;99.90
9223;DHT22;7557;51.698;3.942;2023-02-25T00:23:19;6.20;99.90
9223;DHT22;7557;51.698;3.942;2023-02-25T00:25:46;6.20;99.90
9223;DHT22;7557;51.698;3.942;2023-02-25T00:28:14;6.30;99.90
9223;DHT22;7557;51.698;3.942;2023-02-25T00:30:41;6.40;99.90
9223;DHT22;7557;51.698;3.942;2023-02-25T00:33:08;6.30;99.90
9223;DHT22;7557;51.698;3.942;2023-02-25T00:35:39;6.30;99.90
9223;DHT22;7557;51.698;3.942;2023-02-25T00:38:06;6.20;99.90
9223;DHT22;7557;51.698;3.942;2023-02-25T00:40:37;6.10;99.90
9223;DHT22;7557;51.698;3.942;2023-02-25T00:43:05;6.00;99.90
9223;DHT22;7557;51.698;3.942;2023-02-25T00:45:33;5.80;99.90
9223;DHT22;7557;51.698;3.942;2023-02-25T00:48:00;5.70;99.90
9223;DHT22;7557;51.698;3.942;2023-02-25T00:50:47;5.70;99.90
9223;DHT22;7557;51.698;3.942;2023-02-25T00:53:14;5.70;99.90
9223;DHT22;7557;51.698;3.942;2023-02-25T00:55:41;5.70;99.90
9223;DHT22;7557;51.698;3.942;2023-02-25T00:58:08;5.70;99.90
9223;DHT22;7557;51.698;3.942;2023-02-25T01:00:35;5.70;99.90
9223;DHT22;7557;51.698;3.942;2023-02-25T01:03:02;5.80;99.90
9223;DHT22;7557;51.698;3.942;2023-02-25T01:05:30;5.80;99.90
9223;DHT22;7557;51.698;3.942;2023-02-25T01:07:58;5.90;99.90
9223;DHT22;7557;51.698;3.942;2023-02-25T01:10:27;5.90;99.90
9223;DHT22;7557;51.698;3.942;2023-02-25T01:12:54;5.90;99.90
9223;DHT22;7557;51.698;3.942;2023-02-25T01:15:21;6.00;99.90
9223;DHT22;7557;51.698;3.942;2023-02-25T01:17:48;6.00;99.90
9223;DHT22;7557;51.698;3.942;2023-02-25T01:20:15;6.00;99.90
9223;DHT22;7557;51.698;3.942;2023-02-25T01:22:44;6.10;99.90
9223;DHT22;7557;51.698;3.942;2023-02-25T01:25:14;6.10;99.90
9223;DHT22;7557;51.698;3.942;2023-02-25T01:27:42;6.20;99.90
9223;DHT22;7557;51.698;3.942;2023-02-25T01:30:10;6.30;99.90
9223;DHT22;7557;51.698;3.942;2023-02-25T01:32:37;6.30;99.90
9223;DHT22;7557;51.698;3.942;2023-02-25T01:35:05;6.40;99.90
9223;DHT22;7557;51.698;3.942;2023-02-25T01:37:32;6.50;99.90
9223;DHT22;7557;51.698;3.942;2023-02-25T01:39:59;6.50;99.90
9223;DHT22;7557;51.698;3.942;2023-02-25T01:42:27;6.50;99.90
9223;DHT22;7557;51.698;3.942;2023-02-25T01:45:29;6.50;99.90
9223;DHT22;7557;51.698;3.942;2023-02-25T01:48:00;6.50;99.90
9223;DHT22;7557;51.698;3.942;2023-02-25T01:50:35;6.50;99.90
9223;DHT22;7557;51.698;3.942;2023-02-25T01:53:05;6.50;99.90
9223;DHT22;7557;51.698;3.942;2023-02-25T01:55:34;6.50;99.90
9223;DHT22;7557;51.698;3.942;2023-02-25T01:58:03;6.50;99.90
9223;DHT22;7557;51.698;3.942;2023-02-25T02:00:31;6.50;99.90
9223;DHT22;7557;51.698;3.942;2023-02-25T02:02:59;6.40;99.90
9223;DHT22;7557;51.698;3.942;2023-02-25T02:05:37;6.30;99.90
9223;DHT22;7557;51.698;3.942;2023-02-25T02:08:08;6.10;99.90
9223;DHT22;7557;51.698;3.942;2023-02-25T02:10:35;6.00;99.90
9223;DHT22;7557;51.698;3.942;2023-02-25T02:13:04;5.70;99.90
9223;DHT22;7557;51.698;3.942;2023-02-25T02:15:37;5.60;99.90
9223;DHT22;7557;51.698;3.942;2023-02-25T02:18:06;5.50;99.90
9223;DHT22;7557;51.698;3.942;2023-02-25T02:20:45;5.40;99.90
9223;DHT22;7557;51.698;3.942;2023-02-25T02:23:30;5.40;99.90
9223;DHT22;7557;51.698;3.942;2023-02-25T02:26:42;5.50;99.90
9223;DHT22;7557;51.698;3.942;2023-02-25T02:29:37;5.50;99.90
9223;DHT22;7557;51.698;3.942;2023-02-25T02:32:18;5.60;99.90
9223;DHT22;7557;51.698;3.942;2023-02-25T02:34:53;5.60;99.90
9223;DHT22;7557;51.698;3.942;2023-02-25T02:37:29;5.60;99.90
9223;DHT22;7557;51.698;3.942;2023-02-25T02:40:20;5.60;99.90
9223;DHT22;7557;51.698;3.942;2023-02-25T02:43:00;5.70;99.90
9223;DHT22;7557;51.698;3.942;2023-02-25T02:45:39;5.70;99.90
9223;DHT22;7557;51.698;3.942;2023-02-25T02:48:10;5.80;99.90
9223;DHT22;7557;51.698;3.942;2023-02-25T02:50:42;5.80;99.90
9223;DHT22;7557;51.698;3.942;2023-02-25T02:53:13;5.80;99.90
9223;DHT22;7557;51.698;3.942;2023-02-25T02:55:43;5.90;99.90
9223;DHT22;7557;51.698;3.942;2023-02-25T02:58:16;5.90;99.90
9223;DHT22;7557;51.698;3.942;2023-02-25T03:00:46;6.00;99.90
9223;DHT22;7557;51.698;3.942;2023-02-25T03:03:18;6.10;99.90
9223;DHT22;7557;51.698;3.942;2023-02-25T03:05:49;6.20;99.90
9223;DHT22;7557;51.698;3.942;2023-02-25T03:08:21;6.20;99.90
9223;DHT22;7557;51.698;3.942;2023-02-25T03:10:50;6.30;99.90
9223;DHT22;7557;51.698;3.942;2023-02-25T03:13:17;6.30;99.90
9223;DHT22;7557;51.698;3.942;2023-02-25T03:15:45;6.30;99.90
9223;DHT22;7557;51.698;3.942;2023-02-25T03:18:21;6.40;99.90
9223;DHT22;7557;51.698;3.942;2023-02-25T03:20:53;6.40;99.90
9223;DHT22;7557;51.698;3.942;2023-02-25T03:23:26;6.40;99.90
9223;DHT22;7557;51.698;3.942;2023-02-25T03:26:04;6.50;99.90
9223;DHT22;7557;51.698;3.942;2023-02-25T03:28:35;6.50;99.90
9223;DHT22;7557;51.698;3.942;2023-02-25T03:31:06;6.50;99.90
9223;DHT22;7557;51.698;3.942;2023-02-25T03:33:39;6.50;99.90
9223;DHT22;7557;51.698;3.942;2023-02-25T03:36:16;6.50;99.90
9223;DHT22;7557;51.698;3.942;2023-02-25T03:38:48;6.50;99.90
9223;DHT22;7557;51.698;3.942;2023-02-25T03:41:17;6.50;99.90
9223;DHT22;7557;51.698;3.942;2023-02-25T03:43:49;6.50;99.90
9223;DHT22;7557;51.698;3.942;2023-02-25T03:46:20;6.60;99.90
9223;DHT22;7557;51.698;3.942;2023-02-25T03:48:50;6.60;99.90
9223;DHT22;7557;51.698;3.942;2023-02-25T03:51:22;6.50;99.90
9223;DHT22;7557;51.698;3.942;2023-02-25T03:53:49;6.50;99.90
9223;DHT22;7557;51.698;3.942;2023-02-25T03:56:17;6.40;99.90
9223;DHT22;7557;51.698;3.942;2023-02-25T03:58:44;6.30;99.90
9223;DHT22;7557;51.698;3.942;2023-02-25T04:01:14;6.40;99.90
9223;DHT22;7557;51.698;3.942;2023-02-25T04:03:42;6.40;99.90
9223;DHT22;7557;51.698;3.942;2023-02-25T04:06:11;6.40;99.90
9223;DHT22;7557;51.698;3.942;2023-02-25T04:08:39;6.40;99.90
9223;DHT22;7557;51.698;3.942;2023-02-25T04:11:06;6.40;99.90
9223;DHT22;7557;51.698;3.942;2023-02-25T04:13:33;6.40;99.90
9223;DHT22;7557;51.698;3.942;2023-02-25T04:16:00;6.40;99.90
9223;DHT22;7557;51.698;3.942;2023-02-25T04:18:28;6.30;99.90
9223;DHT22;7557;51.698;3.942;2023-02-25T04:20:55;6.40;99.90
9223;DHT22;7557;51.698;3.942;2023-02-25T04:23:23;6.30;99.90
9223;DHT22;7557;51.698;3.942;2023-02-25T04:25:50;6.40;99.90
9223;DHT22;7557;51.698;3.942;2023-02-25T04:28:17;6.30;99.90
9223;DHT22;7557;51.698;3.942;2023-02-25T04:30:45;6.30;99.90
9223;DHT22;7557;51.698;3.942;2023-02-25T04:33:12;6.30;99.90
9223;DHT22;7557;51.698;3.942;2023-02-25T04:35:39;6.30;99.90
9223;DHT22;7557;51.698;3.942;2023-02-25T04:38:06;6.40;99.90
9223;DHT22;7557;51.698;3.942;2023-02-25T04:40:35;6.40;99.90
9223;DHT22;7557;51.698;3.942;2023-02-25T04:43:03;6.40;99.90
9223;DHT22;7557;51.698;3.942;2023-02-25T04:45:30;6.40;99.90
9223;DHT22;7557;51.698;3.942;2023-02-25T04:47:57;6.40;99.90
9223;DHT22;7557;51.698;3.942;2023-02-25T04:50:24;6.40;99.90
9223;DHT22;7557;51.698;3.942;2023-02-25T04:52:52;6.40;99.90
9223;DHT22;7557;51.698;3.942;2023-02-25T04:55:19;6.40;99.90
9223;DHT22;7557;51.698;3.942;2023-02-25T04:57:47;6.40;99.90
9223;DHT22;7557;51.698;3.942;2023-02-25T05:00:17;6.40;99.90
9223;DHT22;7557;51.698;3.942;2023-02-25T05:02:46;6.40;99.90
9223;DHT22;7557;51.698;3.942;2023-02-25T05:05:13;6.40;99.90
9223;DHT22;7557;51.698;3.942;2023-02-25T05:07:41;6.40;99.90
9223;DHT22;7557;51.698;3.942;2023-02-25T05:10:11;6.40;99.90
9223;DHT22;7557;51.698;3.942;2023-02-25T05:12:39;6.40;99.90
9223;DHT22;7557;51.698;3.942;2023-02-25T05:15:09;6.30;99.90
9223;DHT22;7557;51.698;3.942;2023-02-25T05:17:36;6.30;99.90
9223;DHT22;7557;51.698;3.942;2023-02-25T05:20:04;6.30;99.90
9223;DHT22;7557;51.698;3.942;2023-02-25T05:22:36;6.30;99.90
9223;DHT22;7557;51.698;3.942;2023-02-25T05:25:04;6.30;99.90
9223;DHT22;7557;51.698;3.942;2023-02-25T05:27:32;6.30;99.90
9223;DHT22;7557;51.698;3.942;2023-02-25T05:29:59;6.30;99.90
9223;DHT22;7557;51.698;3.942;2023-02-25T05:32:28;6.40;99.90
9223;DHT22;7557;51.698;3.942;2023-02-25T05:34:56;6.00;99.90
9223;DHT22;7557;51.698;3.942;2023-02-25T05:37:23;5.60;99.90
9223;DHT22;7557;51.698;3.942;2023-02-25T05:39:50;5.20;99.90
9223;DHT22;7557;51.698;3.942;2023-02-25T05:42:17;4.90;99.90
9223;DHT22;7557;51.698;3.942;2023-02-25T05:44:44;4.80;99.90
9223;DHT22;7557;51.698;3.942;2023-02-25T05:47:12;4.80;99.90
9223;DHT22;7557;51.698;3.942;2023-02-25T05:49:41;4.80;99.90
9223;DHT22;7557;51.698;3.942;2023-02-25T05:52:09;4.90;99.90
9223;DHT22;7557;51.698;3.942;2023-02-25T05:54:36;4.90;99.90
9223;DHT22;7557;51.698;3.942;2023-02-25T05:57:03;5.00;99.90
9223;DHT22;7557;51.698;3.942;2023-02-25T05:59:30;5.10;99.90
9223;DHT22;7557;51.698;3.942;2023-02-25T06:01:58;5.10;99.90
9223;DHT22;7557;51.698;3.942;2023-02-25T06:04:25;5.10;99.90
9223;DHT22;7557;51.698;3.942;2023-02-25T06:06:53;5.20;99.90
9223;DHT22;7557;51.698;3.942;2023-02-25T06:09:21;5.30;99.90
9223;DHT22;7557;51.698;3.942;2023-02-25T06:11:48;5.30;99.90
9223;DHT22;7557;51.698;3.942;2023-02-25T06:14:15;5.40;99.90
9223;DHT22;7557;51.698;3.942;2023-02-25T06:16:42;5.50;99.90
9223;DHT22;7557;51.698;3.942;2023-02-25T06:19:10;5.60;99.90
9223;DHT22;7557;51.698;3.942;2023-02-25T06:21:37;5.60;99.90
9223;DHT22;7557;51.698;3.942;2023-02-25T06:24:07;5.70;99.90
9223;DHT22;7557;51.698;3.942;2023-02-25T06:26:34;5.70;99.90
9223;DHT22;7557;51.698;3.942;2023-02-25T06:29:07;5.70;99.90
9223;DHT22;7557;51.698;3.942;2023-02-25T06:31:34;5.70;99.90
9223;DHT22;7557;51.698;3.942;2023-02-25T06:34:02;5.70;99.90
9223;DHT22;7557;51.698;3.942;2023-02-25T06:36:29;5.80;99.90
9223;DHT22;7557;51.698;3.942;2023-02-25T06:38:56;5.80;99.90
9223;DHT22;7557;51.698;3.942;2023-02-25T06:41:25;5.80;99.90
9223;DHT22;7557;51.698;3.942;2023-02-25T06:43:52;5.90;99.90
9223;DHT22;7557;51.698;3.942;2023-02-25T06:46:21;5.90;99.90
9223;DHT22;7557;51.698;3.942;2023-02-25T06:48:48;6.00;99.90
9223;DHT22;7557;51.698;3.942;2023-02-25T06:51:16;6.00;99.90
9223;DHT22;7557;51.698;3.942;2023-02-25T06:53:44;6.00;99.90
9223;DHT22;7557;51.698;3.942;2023-02-25T06:56:13;5.90;99.90
9223;DHT22;7557;51.698;3.942;2023-02-25T06:58:42;6.00;99.90
9223;DHT22;7557;51.698;3.942;2023-02-25T07:01:12;6.00;99.90
9223;DHT22;7557;51.698;3.942;2023-02-25T07:03:39;6.00;99.90
9223;DHT22;7557;51.698;3.942;2023-02-25T07:06:08;6.00;99.90
9223;DHT22;7557;51.698;3.942;2023-02-25T07:08:35;5.90;99.90
9223;DHT22;7557;51.698;3.942;2023-02-25T07:11:11;5.80;99.90
9223;DHT22;7557;51.698;3.942;2023-02-25T07:13:38;5.80;99.90
9223;DHT22;7557;51.698;3.942;2023-02-25T07:16:09;5.70;99.90
9223;DHT22;7557;51.698;3.942;2023-02-25T07:18:36;5.60;99.90
9223;DHT22;7557;51.698;3.942;2023-02-25T07:21:04;5.60;99.90
9223;DHT22;7557;51.698;3.942;2023-02-25T07:23:31;5.60;99.90
9223;DHT22;7557;51.698;3.942;2023-02-25T07:26:01;5.60;99.90
9223;DHT22;7557;51.698;3.942;2023-02-25T07:28:29;5.70;99.90
9223;DHT22;7557;51.698;3.942;2023-02-25T07:30:58;5.80;99.90
9223;DHT22;7557;51.698;3.942;2023-02-25T07:33:27;5.90;99.90
9223;DHT22;7557;51.698;3.942;2023-02-25T07:35:55;6.10;99.90
9223;DHT22;7557;51.698;3.942;2023-02-25T07:38:22;6.10;99.90
9223;DHT22;7557;51.698;3.942;2023-02-25T07:40:49;6.20;99.90
9223;DHT22;7557;51.698;3.942;2023-02-25T07:43:16;6.20;99.90
9223;DHT22;7557;51.698;3.942;2023-02-25T07:45:43;6.30;99.90
9223;DHT22;7557;51.698;3.942;2023-02-25T07:48:10;6.30;99.90
9223;DHT22;7557;51.698;3.942;2023-02-25T07:50:39;6.30;99.90
9223;DHT22;7557;51.698;3.942;2023-02-25T07:53:06;6.30;99.90
9223;DHT22;7557;51.698;3.942;2023-02-25T07:55:33;6.30;99.90
9223;DHT22;7557;51.698;3.942;2023-02-25T07:58:00;6.40;99.90
9223;DHT22;7557;51.698;3.942;2023-02-25T08:00:27;6.40;99.90
9223;DHT22;7557;51.698;3.942;2023-02-25T08:02:54;6.50;99.90
9223;DHT22;7557;51.698;3.942;2023-02-25T08:05:21;6.50;99.90
9223;DHT22;7557;51.698;3.942;2023-02-25T08:07:50;6.60;99.90
9223;DHT22;7557;51.698;3.942;2023-02-25T08:10:17;6.60;99.90
9223;DHT22;7557;51.698;3.942;2023-02-25T08:12:44;6.70;99.90
9223;DHT22;7557;51.698;3.942;2023-02-25T08:15:11;6.70;99.90
9223;DHT22;7557;51.698;3.942;2023-02-25T08:17:39;6.70;99.90
9223;DHT22;7557;51.698;3.942;2023-02-25T08:20:07;6.60;99.90
9223;DHT22;7557;51.698;3.942;2023-02-25T08:22:34;6.60;99.90
9223;DHT22;7557;51.698;3.942;2023-02-25T08:25:04;6.60;99.90
9223;DHT22;7557;51.698;3.942;2023-02-25T08:27:31;6.50;99.90
9223;DHT22;7557;51.698;3.942;2023-02-25T08:30:00;6.50;99.90
9223;DHT22;7557;51.698;3.942;2023-02-25T08:32:27;6.50;99.90
9223;DHT22;7557;51.698;3.942;2023-02-25T08:34:54;6.60;99.90
9223;DHT22;7557;51.698;3.942;2023-02-25T08:37:21;6.60;99.90
9223;DHT22;7557;51.698;3.942;2023-02-25T08:39:53;6.70;99.90
9223;DHT22;7557;51.698;3.942;2023-02-25T08:42:21;6.80;99.90
9223;DHT22;7557;51.698;3.942;2023-02-25T08:44:48;6.90;99.90
9223;DHT22;7557;51.698;3.942;2023-02-25T08:47:16;7.00;99.90
9223;DHT22;7557;51.698;3.942;2023-02-25T08:49:43;7.30;99.90
9223;DHT22;7557;51.698;3.942;2023-02-25T08:52:11;7.40;99.90
9223;DHT22;7557;51.698;3.942;2023-02-25T08:54:38;7.20;99.90
9223;DHT22;7557;51.698;3.942;2023-02-25T08:57:06;7.10;99.90
9223;DHT22;7557;51.698;3.942;2023-02-25T08:59:34;7.10;99.90
9223;DHT22;7557;51.698;3.942;2023-02-25T09:02:02;7.20;99.90
9223;DHT22;7557;51.698;3.942;2023-02-25T09:04:31;7.30;99.90
9223;DHT22;7557;51.698;3.942;2023-02-25T09:06:59;7.30;99.90
9223;DHT22;7557;51.698;3.942;2023-02-25T09:09:27;7.50;99.90
9223;DHT22;7557;51.698;3.942;2023-02-25T09:11:54;7.60;99.90
9223;DHT22;7557;51.698;3.942;2023-02-25T09:14:22;7.60;99.90
9223;DHT22;7557;51.698;3.942;2023-02-25T09:16:50;7.70;99.90
9223;DHT22;7557;51.698;3.942;2023-02-25T09:19:17;7.80;99.90
9223;DHT22;7557;51.698;3.942;2023-02-25T09:21:45;7.80;99.90
9223;DHT22;7557;51.698;3.942;2023-02-25T09:24:13;7.70;99.90
9223;DHT22;7557;51.698;3.942;2023-02-25T09:26:40;7.70;99.90
9223;DHT22;7557;51.698;3.942;2023-02-25T09:29:08;7.60;99.90
9223;DHT22;7557;51.698;3.942;2023-02-25T09:31:36;7.50;99.90
9223;DHT22;7557;51.698;3.942;2023-02-25T09:34:07;7.40;99.90
9223;DHT22;7557;51.698;3.942;2023-02-25T09:36:35;7.40;99.90
9223;DHT22;7557;51.698;3.942;2023-02-25T09:39:03;7.40;99.90
9223;DHT22;7557;51.698;3.942;2023-02-25T09:41:41;7.60;99.90
9223;DHT22;7557;51.698;3.942;2023-02-25T09:44:12;7.60;99.90
9223;DHT22;7557;51.698;3.942;2023-02-25T09:46:45;7.60;99.90
9223;DHT22;7557;51.698;3.942;2023-02-25T09:49:20;7.70;99.90
9223;DHT22;7557;51.698;3.942;2023-02-25T09:51:54;7.80;99.90
9223;DHT22;7557;51.698;3.942;2023-02-25T09:54:26;7.80;99.90
9223;DHT22;7557;51.698;3.942;2023-02-25T09:56:57;7.80;99.90
9223;DHT22;7557;51.698;3.942;2023-02-25T09:59:27;7.80;99.90
9223;DHT22;7557;51.698;3.942;2023-02-25T10:01:57;7.90;99.90
9223;DHT22;7557;51.698;3.942;2023-02-25T10:04:31;8.00;99.90
9223;DHT22;7557;51.698;3.942;2023-02-25T10:07:05;8.20;99.90
9223;DHT22;7557;51.698;3.942;2023-02-25T10:09:38;8.10;99.90
9223;DHT22;7557;51.698;3.942;2023-02-25T10:12:16;8.10;99.90
9223;DHT22;7557;51.698;3.942;2023-02-25T10:17:40;8.20;99.90
9223;DHT22;7557;51.698;3.942;2023-02-25T10:23:19;8.30;99.90
9223;DHT22;7557;51.698;3.942;2023-02-25T10:25:55;8.30;99.90
9223;DHT22;7557;51.698;3.942;2023-02-25T10:28:23;8.40;99.90
9223;DHT22;7557;51.698;3.942;2023-02-25T10:30:56;8.50;99.90
9223;DHT22;7557;51.698;3.942;2023-02-25T10:33:26;8.40;99.90
9223;DHT22;7557;51.698;3.942;2023-02-25T10:35:57;8.40;99.90
9223;DHT22;7557;51.698;3.942;2023-02-25T10:38:26;8.40;99.90
9223;DHT22;7557;51.698;3.942;2023-02-25T10:40:55;8.40;99.90
9223;DHT22;7557;51.698;3.942;2023-02-25T10:43:26;8.40;99.90
9223;DHT22;7557;51.698;3.942;2023-02-25T10:45:59;8.40;99.90
9223;DHT22;7557;51.698;3.942;2023-02-25T10:48:27;8.30;99.90
9223;DHT22;7557;51.698;3.942;2023-02-25T10:51:05;8.30;99.90
9223;DHT22;7557;51.698;3.942;2023-02-25T10:53:34;8.30;99.90
9223;DHT22;7557;51.698;3.942;2023-02-25T10:56:02;8.30;99.90
9223;DHT22;7557;51.698;3.942;2023-02-25T10:58:38;8.30;99.90
9223;DHT22;7557;51.698;3.942;2023-02-25T11:01:11;8.40;99.90
9223;DHT22;7557;51.698;3.942;2023-02-25T11:03:54;8.40;99.90
9223;DHT22;7557;51.698;3.942;2023-02-25T11:06:28;8.10;99.90
9223;DHT22;7557;51.698;3.942;2023-02-25T11:08:57;7.80;99.90
9223;DHT22;7557;51.698;3.942;2023-02-25T11:11:26;7.40;99.90
9223;DHT22;7557;51.698;3.942;2023-02-25T11:13:59;7.10;99.90
9223;DHT22;7557;51.698;3.942;2023-02-25T11:16:27;6.90;99.90
9223;DHT22;7557;51.698;3.942;2023-02-25T11:18:57;6.90;99.90
9223;DHT22;7557;51.698;3.942;2023-02-25T11:21:33;6.90;99.90
9223;DHT22;7557;51.698;3.942;2023-02-25T11:24:04;7.00;99.90
9223;DHT22;7557;51.698;3.942;2023-02-25T11:26:33;7.10;99.90
9223;DHT22;7557;51.698;3.942;2023-02-25T11:29:07;7.20;99.90
9223;DHT22;7557;51.698;3.942;2023-02-25T11:31:38;7.30;99.90
9223;DHT22;7557;51.698;3.942;2023-02-25T11:34:13;7.30;99.90
9223;DHT22;7557;51.698;3.942;2023-02-25T11:36:43;7.30;99.90
9223;DHT22;7557;51.698;3.942;2023-02-25T11:39:16;7.40;99.90
9223;DHT22;7557;51.698;3.942;2023-02-25T11:41:44;7.50;99.90
9223;DHT22;7557;51.698;3.942;2023-02-25T11:44:25;7.70;99.90
9223;DHT22;7557;51.698;3.942;2023-02-25T11:47:16;7.80;99.90
9223;DHT22;7557;51.698;3.942;2023-02-25T11:49:57;7.90;99.90
9223;DHT22;7557;51.698;3.942;2023-02-25T11:52:36;8.00;99.90
9223;DHT22;7557;51.698;3.942;2023-02-25T11:55:16;8.00;99.90
9223;DHT22;7557;51.698;3.942;2023-02-25T11:57:57;8.10;99.90
9223;DHT22;7557;51.698;3.942;2023-02-25T12:00:34;8.20;99.90
9223;DHT22;7557;51.698;3.942;2023-02-25T12:03:16;8.30;99.90
9223;DHT22;7557;51.698;3.942;2023-02-25T12:05:51;8.20;99.90
9223;DHT22;7557;51.698;3.942;2023-02-25T12:11:49;7.90;99.90
9223;DHT22;7557;51.698;3.942;2023-02-25T12:18:11;7.90;99.90
9223;DHT22;7557;51.698;3.942;2023-02-25T12:21:27;7.90;99.90
9223;DHT22;7557;51.698;3.942;2023-02-25T12:30:34;8.20;99.90
9223;DHT22;7557;51.698;3.942;2023-02-25T12:33:13;8.30;99.90
9223;DHT22;7557;51.698;3.942;2023-02-25T12:35:57;8.30;99.90
9223;DHT22;7557;51.698;3.942;2023-02-25T12:41:38;8.00;99.90
9223;DHT22;7557;51.698;3.942;2023-02-25T12:44:28;7.90;99.90
9223;DHT22;7557;51.698;3.942;2023-02-25T12:47:21;7.80;99.90
9223;DHT22;7557;51.698;3.942;2023-02-25T12:50:15;7.70;99.90
9223;DHT22;7557;51.698;3.942;2023-02-25T12:52:56;7.70;99.90
9223;DHT22;7557;51.698;3.942;2023-02-25T12:55:44;7.70;99.90
9223;DHT22;7557;51.698;3.942;2023-02-25T12:58:38;7.80;99.90
9223;DHT22;7557;51.698;3.942;2023-02-25T13:01:26;7.90;99.90
9223;DHT22;7557;51.698;3.942;2023-02-25T13:04:33;8.00;99.90
9223;DHT22;7557;51.698;3.942;2023-02-25T13:07:37;8.10;99.90
9223;DHT22;7557;51.698;3.942;2023-02-25T13:10:31;8.10;99.90
9223;DHT22;7557;51.698;3.942;2023-02-25T13:13:14;8.00;99.90
9223;DHT22;7557;51.698;3.942;2023-02-25T13:15:59;7.80;99.90
9223;DHT22;7557;51.698;3.942;2023-02-25T13:18:40;7.80;99.90
9223;DHT22;7557;51.698;3.942;2023-02-25T13:21:38;7.80;99.90
9223;DHT22;7557;51.698;3.942;2023-02-25T13:24:23;8.00;99.90
9223;DHT22;7557;51.698;3.942;2023-02-25T13:30:24;8.30;99.90
9223;DHT22;7557;51.698;3.942;2023-02-25T13:33:09;8.40;99.90
9223;DHT22;7557;51.698;3.942;2023-02-25T13:35:46;8.50;99.90
9223;DHT22;7557;51.698;3.942;2023-02-25T13:38:29;8.40;99.90
9223;DHT22;7557;51.698;3.942;2023-02-25T13:41:25;8.30;99.90
9223;DHT22;7557;51.698;3.942;2023-02-25T13:44:19;8.20;99.90
9223;DHT22;7557;51.698;3.942;2023-02-25T13:47:09;8.20;99.90
9223;DHT22;7557;51.698;3.942;2023-02-25T13:53:13;8.20;99.90
9223;DHT22;7557;51.698;3.942;2023-02-25T13:56:08;8.20;99.90
9223;DHT22;7557;51.698;3.942;2023-02-25T13:58:50;8.20;99.90
9223;DHT22;7557;51.698;3.942;2023-02-25T14:01:51;8.10;99.90
9223;DHT22;7557;51.698;3.942;2023-02-25T14:04:38;8.00;99.90
9223;DHT22;7557;51.698;3.942;2023-02-25T14:10:41;8.00;99.90
9223;DHT22;7557;51.698;3.942;2023-02-25T14:16:14;8.00;99.90
9223;DHT22;7557;51.698;3.942;2023-02-25T14:18:52;8.10;99.90
9223;DHT22;7557;51.698;3.942;2023-02-25T14:21:45;8.20;99.90
9223;DHT22;7557;51.698;3.942;2023-02-25T14:24:20;8.10;99.90
9223;DHT22;7557;51.698;3.942;2023-02-25T14:26:58;8.00;99.90
9223;DHT22;7557;51.698;3.942;2023-02-25T14:29:37;8.00;99.90
9223;DHT22;7557;51.698;3.942;2023-02-25T14:32:27;7.90;99.90
9223;DHT22;7557;51.698;3.942;2023-02-25T14:35:12;8.00;99.90
9223;DHT22;7557;51.698;3.942;2023-02-25T14:37:47;8.00;99.90
9223;DHT22;7557;51.698;3.942;2023-02-25T14:40:26;8.10;99.90
9223;DHT22;7557;51.698;3.942;2023-02-25T14:43:14;8.10;99.90
9223;DHT22;7557;51.698;3.942;2023-02-25T14:45:49;8.10;99.90
9223;DHT22;7557;51.698;3.942;2023-02-25T14:48:22;8.10;99.90
9223;DHT22;7557;51.698;3.942;2023-02-25T14:50:56;8.10;99.90
9223;DHT22;7557;51.698;3.942;2023-02-25T14:56:45;8.00;99.90
9223;DHT22;7557;51.698;3.942;2023-02-25T14:59:31;7.90;99.90
9223;DHT22;7557;51.698;3.942;2023-02-25T15:02:22;7.80;99.90
9223;DHT22;7557;51.698;3.942;2023-02-25T15:08:00;7.90;98.80
9223;DHT22;7557;51.698;3.942;2023-02-25T15:10:42;7.90;98.80
9223;DHT22;7557;51.698;3.942;2023-02-25T15:16:37;7.80;98.50
9223;DHT22;7557;51.698;3.942;2023-02-25T15:19:33;7.80;99.60
9223;DHT22;7557;51.698;3.942;2023-02-25T15:22:24;7.70;98.90
9223;DHT22;7557;51.698;3.942;2023-02-25T15:24:53;7.70;98.40
9223;DHT22;7557;51.698;3.942;2023-02-25T15:27:44;7.60;99.20
9223;DHT22;7557;51.698;3.942;2023-02-25T15:30:14;7.70;99.90
9223;DHT22;7557;51.698;3.942;2023-02-25T15:32:51;7.60;99.90
9223;DHT22;7557;51.698;3.942;2023-02-25T15:35:22;7.60;99.90
9223;DHT22;7557;51.698;3.942;2023-02-25T15:38:04;7.60;99.90
9223;DHT22;7557;51.698;3.942;2023-02-25T15:40:47;7.60;99.90
9223;DHT22;7557;51.698;3.942;2023-02-25T15:43:39;7.60;99.90
9223;DHT22;7557;51.698;3.942;2023-02-25T15:46:36;7.60;99.90
9223;DHT22;7557;51.698;3.942;2023-02-25T15:49:15;7.60;99.90
9223;DHT22;7557;51.698;3.942;2023-02-25T15:51:46;7.60;99.90
9223;DHT22;7557;51.698;3.942;2023-02-25T15:54:45;7.60;99.90
9223;DHT22;7557;51.698;3.942;2023-02-25T15:57:34;7.60;99.90
9223;DHT22;7557;51.698;3.942;2023-02-25T16:00:11;7.50;99.90
9223;DHT22;7557;51.698;3.942;2023-02-25T16:02:58;7.50;99.90
9223;DHT22;7557;51.698;3.942;2023-02-25T16:05:31;7.40;99.90
9223;DHT22;7557;51.698;3.942;2023-02-25T16:08:12;7.30;99.90
9223;DHT22;7557;51.698;3.942;2023-02-25T16:10:42;7.30;99.90
9223;DHT22;7557;51.698;3.942;2023-02-25T16:13:14;7.20;99.90
9223;DHT22;7557;51.698;3.942;2023-02-25T16:15:45;7.20;99.90
9223;DHT22;7557;51.698;3.942;2023-02-25T16:18:20;7.20;99.90
9223;DHT22;7557;51.698;3.942;2023-02-25T16:20:55;7.20;99.90
9223;DHT22;7557;51.698;3.942;2023-02-25T16:23:25;7.10;99.90
9223;DHT22;7557;51.698;3.942;2023-02-25T16:26:00;7.10;99.20
9223;DHT22;7557;51.698;3.942;2023-02-25T16:28:37;7.10;99.10
9223;DHT22;7557;51.698;3.942;2023-02-25T16:31:13;7.10;99.50
9223;DHT22;7557;51.698;3.942;2023-02-25T16:33:50;7.00;99.70
9223;DHT22;7557;51.698;3.942;2023-02-25T16:36:28;7.00;99.80
9223;DHT22;7557;51.698;3.942;2023-02-25T16:38:59;7.00;99.90
9223;DHT22;7557;51.698;3.942;2023-02-25T16:41:28;6.90;99.60
9223;DHT22;7557;51.698;3.942;2023-02-25T16:43:55;6.90;99.90
9223;DHT22;7557;51.698;3.942;2023-02-25T16:46:29;6.90;99.90
9223;DHT22;7557;51.698;3.942;2023-02-25T16:48:58;6.90;99.90
9223;DHT22;7557;51.698;3.942;2023-02-25T16:51:29;6.90;99.90
9223;DHT22;7557;51.698;3.942;2023-02-25T16:54:04;6.80;99.90
9223;DHT22;7557;51.698;3.942;2023-02-25T16:56:32;6.80;99.90
9223;DHT22;7557;51.698;3.942;2023-02-25T16:59:15;6.70;99.90
9223;DHT22;7557;51.698;3.942;2023-02-25T17:01:47;6.70;99.90
9223;DHT22;7557;51.698;3.942;2023-02-25T17:04:21;6.70;99.90
9223;DHT22;7557;51.698;3.942;2023-02-25T17:10:26;6.60;99.90
9223;DHT22;7557;51.698;3.942;2023-02-25T17:12:55;6.50;99.90
9223;DHT22;7557;51.698;3.942;2023-02-25T17:15:25;6.50;99.90
9223;DHT22;7557;51.698;3.942;2023-02-25T17:17:59;6.40;99.90
9223;DHT22;7557;51.698;3.942;2023-02-25T17:20:28;6.40;99.90
9223;DHT22;7557;51.698;3.942;2023-02-25T17:22:57;6.40;99.90
9223;DHT22;7557;51.698;3.942;2023-02-25T17:25:31;6.30;99.90
9223;DHT22;7557;51.698;3.942;2023-02-25T17:28:02;6.30;99.90
9223;DHT22;7557;51.698;3.942;2023-02-25T17:30:39;6.30;99.90
9223;DHT22;7557;51.698;3.942;2023-02-25T17:33:18;6.20;99.90
9223;DHT22;7557;51.698;3.942;2023-02-25T17:35:47;6.10;99.90
9223;DHT22;7557;51.698;3.942;2023-02-25T17:38:18;6.00;99.90
9223;DHT22;7557;51.698;3.942;2023-02-25T17:40:48;6.00;99.90
9223;DHT22;7557;51.698;3.942;2023-02-25T17:43:21;6.00;99.90